sensor_id;sensor_type;location;lat;lon;timestamp;temperature;humidity
8537;DHT22;4306;50.210;10.628;2022-12-10T00:00:35;-0.50;99.90
8537;DHT22;4306;50.210;10.628;2022-12-10T00:03:04;-0.50;99.90
8537;DHT22;4306;50.210;10.628;2022-12-10T00:05:33;-0.50;99.90
8537;DHT22;4306;50.210;10.628;2022-12-10T00:08:00;-0.60;99.90
8537;DHT22;4306;50.210;10.628;2022-12-10T00:10:26;-0.50;99.90
8537;DHT22;4306;50.210;10.628;2022-12-10T00:12:53;-0.60;99.90
8537;DHT22;4306;50.210;10.628;2022-12-10T00:15:20;-0.60;99.90
8537;DHT22;4306;50.210;10.628;2022-12-10T00:17:47;-0.70;99.90
8537;DHT22;4306;50.210;10.628;2022-12-10T00:20:15;-0.70;99.90
8537;DHT22;4306;50.210;10.628;2022-12-10T00:22:43;-0.70;99.90
8537;DHT22;4306;50.210;10.628;2022-12-10T00:25:09;-0.70;99.90
8537;DHT22;4306;50.210;10.628;2022-12-10T00:27:36;-0.60;99.90
8537;DHT22;4306;50.210;10.628;2022-12-10T00:30:04;-0.50;99.90
8537;DHT22;4306;50.210;10.628;2022-12-10T00:32:31;-0.60;99.90
8537;DHT22;4306;50.210;10.628;2022-12-10T00:34:58;-0.50;99.90
8537;DHT22;4306;50.210;10.628;2022-12-10T00:37:26;-0.60;99.90
8537;DHT22;4306;50.210;10.628;2022-12-10T00:39:53;-0.70;99.90
8537;DHT22;4306;50.210;10.628;2022-12-10T00:42:20;-0.70;99.90
8537;DHT22;4306;50.210;10.628;2022-12-10T00:44:47;-0.60;99.90
8537;DHT22;4306;50.210;10.628;2022-12-10T00:47:14;-0.70;99.90
8537;DHT22;4306;50.210;10.628;2022-12-10T00:49:41;-0.60;99.90
8537;DHT22;4306;50.210;10.628;2022-12-10T00:52:07;-0.60;99.90
8537;DHT22;4306;50.210;10.628;2022-12-10T00:54:36;-0.50;99.90
8537;DHT22;4306;50.210;10.628;2022-12-10T00:57:03;-0.50;99.90
8537;DHT22;4306;50.210;10.628;2022-12-10T00:59:30;-0.60;99.90
8537;DHT22;4306;50.210;10.628;2022-12-10T01:01:57;-0.50;99.90
8537;DHT22;4306;50.210;10.628;2022-12-10T01:04:24;-0.50;99.90
8537;DHT22;4306;50.210;10.628;2022-12-10T01:06:52;-0.50;99.90
8537;DHT22;4306;50.210;10.628;2022-12-10T01:09:22;-0.50;99.90
8537;DHT22;4306;50.210;10.628;2022-12-10T01:11:52;-0.50;99.90
8537;DHT22;4306;50.210;10.628;2022-12-10T01:14:21;-0.50;99.90
8537;DHT22;4306;50.210;10.628;2022-12-10T01:16:49;-0.60;99.90
8537;DHT22;4306;50.210;10.628;2022-12-10T01:19:16;-0.50;99.90
8537;DHT22;4306;50.210;10.628;2022-12-10T01:21:43;-0.50;99.90
8537;DHT22;4306;50.210;10.628;2022-12-10T01:24:10;-0.50;99.90
8537;DHT22;4306;50.210;10.628;2022-12-10T01:26:38;-0.50;99.90
8537;DHT22;4306;50.210;10.628;2022-12-10T01:29:06;-0.50;99.90
8537;DHT22;4306;50.210;10.628;2022-12-10T01:31:35;-0.60;99.90
8537;DHT22;4306;50.210;10.628;2022-12-10T01:34:04;-0.60;99.90
8537;DHT22;4306;50.210;10.628;2022-12-10T01:36:33;-0.60;99.90
8537;DHT22;4306;50.210;10.628;2022-12-10T01:39:01;-0.60;99.90
8537;DHT22;4306;50.210;10.628;2022-12-10T01:41:30;-0.70;99.90
8537;DHT22;4306;50.210;10.628;2022-12-10T01:43:59;-0.70;99.90
8537;DHT22;4306;50.210;10.628;2022-12-10T01:46:29;-0.70;99.90
8537;DHT22;4306;50.210;10.628;2022-12-10T01:48:57;-0.80;99.90
8537;DHT22;4306;50.210;10.628;2022-12-10T01:51:28;-0.80;99.90
8537;DHT22;4306;50.210;10.628;2022-12-10T01:53:55;-0.90;99.90
8537;DHT22;4306;50.210;10.628;2022-12-10T01:56:22;-1.00;99.90
8537;DHT22;4306;50.210;10.628;2022-12-10T01:58:51;-1.10;99.90
8537;DHT22;4306;50.210;10.628;2022-12-10T02:01:26;-1.00;99.90
8537;DHT22;4306;50.210;10.628;2022-12-10T02:04:08;-1.00;99.90
8537;DHT22;4306;50.210;10.628;2022-12-10T02:06:46;-1.00;99.90
8537;DHT22;4306;50.210;10.628;2022-12-10T02:09:22;-1.10;99.90
8537;DHT22;4306;50.210;10.628;2022-12-10T02:11:59;-1.00;99.90
8537;DHT22;4306;50.210;10.628;2022-12-10T02:14:32;-1.00;99.90
8537;DHT22;4306;50.210;10.628;2022-12-10T02:17:07;-1.00;99.90
8537;DHT22;4306;50.210;10.628;2022-12-10T02:19:54;-1.00;99.90
8537;DHT22;4306;50.210;10.628;2022-12-10T02:22:24;-1.10;99.90
8537;DHT22;4306;50.210;10.628;2022-12-10T02:24:53;-1.20;99.90
8537;DHT22;4306;50.210;10.628;2022-12-10T02:27:26;-1.20;99.90
8537;DHT22;4306;50.210;10.628;2022-12-10T02:29:56;-1.20;99.90
8537;DHT22;4306;50.210;10.628;2022-12-10T02:32:26;-1.30;99.90
8537;DHT22;4306;50.210;10.628;2022-12-10T02:34:58;-1.20;99.90
8537;DHT22;4306;50.210;10.628;2022-12-10T02:37:29;-1.20;99.90
8537;DHT22;4306;50.210;10.628;2022-12-10T02:39:59;-1.20;99.90
8537;DHT22;4306;50.210;10.628;2022-12-10T02:42:30;-1.20;99.90
8537;DHT22;4306;50.210;10.628;2022-12-10T02:45:00;-1.20;99.90
8537;DHT22;4306;50.210;10.628;2022-12-10T02:47:27;-1.20;99.90
8537;DHT22;4306;50.210;10.628;2022-12-10T02:49:56;-1.20;99.90
8537;DHT22;4306;50.210;10.628;2022-12-10T02:52:24;-1.30;99.90
8537;DHT22;4306;50.210;10.628;2022-12-10T02:54:52;-1.30;99.90
8537;DHT22;4306;50.210;10.628;2022-12-10T02:57:39;-1.40;99.90
8537;DHT22;4306;50.210;10.628;2022-12-10T03:00:12;-1.30;99.90
8537;DHT22;4306;50.210;10.628;2022-12-10T03:05:38;-1.50;99.90
8537;DHT22;4306;50.210;10.628;2022-12-10T03:08:12;-1.40;99.90
8537;DHT22;4306;50.210;10.628;2022-12-10T03:10:45;-1.40;99.90
8537;DHT22;4306;50.210;10.628;2022-12-10T03:13:17;-1.50;99.90
8537;DHT22;4306;50.210;10.628;2022-12-10T03:15:46;-1.50;99.90
8537;DHT22;4306;50.210;10.628;2022-12-10T03:18:15;-1.50;99.90
8537;DHT22;4306;50.210;10.628;2022-12-10T03:20:44;-1.40;99.90
8537;DHT22;4306;50.210;10.628;2022-12-10T03:23:17;-1.50;99.90
8537;DHT22;4306;50.210;10.628;2022-12-10T03:25:46;-1.40;99.90
8537;DHT22;4306;50.210;10.628;2022-12-10T03:28:14;-1.50;99.90
8537;DHT22;4306;50.210;10.628;2022-12-10T03:30:44;-1.40;99.90
8537;DHT22;4306;50.210;10.628;2022-12-10T03:33:13;-1.40;99.90
8537;DHT22;4306;50.210;10.628;2022-12-10T03:35:40;-1.50;99.90
8537;DHT22;4306;50.210;10.628;2022-12-10T03:38:08;-1.50;99.90
8537;DHT22;4306;50.210;10.628;2022-12-10T03:40:35;-1.50;99.90
8537;DHT22;4306;50.210;10.628;2022-12-10T03:43:02;-1.40;99.90
8537;DHT22;4306;50.210;10.628;2022-12-10T03:45:29;-1.40;99.90
8537;DHT22;4306;50.210;10.628;2022-12-10T03:47:57;-1.40;99.90
8537;DHT22;4306;50.210;10.628;2022-12-10T03:50:24;-1.30;99.90
8537;DHT22;4306;50.210;10.628;2022-12-10T03:52:51;-1.30;99.90
8537;DHT22;4306;50.210;10.628;2022-12-10T03:55:18;-1.30;99.90
8537;DHT22;4306;50.210;10.628;2022-12-10T03:57:45;-1.30;99.90
8537;DHT22;4306;50.210;10.628;2022-12-10T04:00:12;-1.30;99.90
8537;DHT22;4306;50.210;10.628;2022-12-10T04:02:39;-1.30;99.90
8537;DHT22;4306;50.210;10.628;2022-12-10T04:05:08;-1.30;99.90
8537;DHT22;4306;50.210;10.628;2022-12-10T04:07:35;-1.30;99.90
8537;DHT22;4306;50.210;10.628;2022-12-10T04:10:03;-1.30;99.90
8537;DHT22;4306;50.210;10.628;2022-12-10T04:12:30;-1.40;99.90
8537;DHT22;4306;50.210;10.628;2022-12-10T04:14:57;-1.40;99.90
8537;DHT22;4306;50.210;10.628;2022-12-10T04:17:41;-1.40;99.90
8537;DHT22;4306;50.210;10.628;2022-12-10T04:20:10;-1.40;99.90
8537;DHT22;4306;50.210;10.628;2022-12-10T04:22:57;-1.30;99.90
8537;DHT22;4306;50.210;10.628;2022-12-10T04:25:41;-1.30;99.90
8537;DHT22;4306;50.210;10.628;2022-12-10T04:28:26;-1.20;99.90
8537;DHT22;4306;50.210;10.628;2022-12-10T04:30:52;-1.30;99.90
8537;DHT22;4306;50.210;10.628;2022-12-10T04:33:19;-1.30;99.90
8537;DHT22;4306;50.210;10.628;2022-12-10T04:35:48;-1.30;99.90
8537;DHT22;4306;50.210;10.628;2022-12-10T04:38:14;-1.30;99.90
8537;DHT22;4306;50.210;10.628;2022-12-10T04:40:41;-1.30;99.90
8537;DHT22;4306;50.210;10.628;2022-12-10T04:43:08;-1.20;99.90
8537;DHT22;4306;50.210;10.628;2022-12-10T04:45:35;-1.30;99.90
8537;DHT22;4306;50.210;10.628;2022-12-10T04:48:02;-1.30;99.90
8537;DHT22;4306;50.210;10.628;2022-12-10T04:50:29;-1.30;99.90
8537;DHT22;4306;50.210;10.628;2022-12-10T04:52:57;-1.30;99.90
8537;DHT22;4306;50.210;10.628;2022-12-10T04:55:24;-1.20;99.90
8537;DHT22;4306;50.210;10.628;2022-12-10T04:57:51;-1.20;99.90
8537;DHT22;4306;50.210;10.628;2022-12-10T05:00:18;-1.20;99.90
8537;DHT22;4306;50.210;10.628;2022-12-10T05:02:48;-1.10;99.90
8537;DHT22;4306;50.210;10.628;2022-12-10T05:05:15;-1.00;99.90
8537;DHT22;4306;50.210;10.628;2022-12-10T05:07:42;-1.10;99.90
8537;DHT22;4306;50.210;10.628;2022-12-10T05:10:10;-1.20;99.90
8537;DHT22;4306;50.210;10.628;2022-12-10T05:12:37;-1.20;99.90
8537;DHT22;4306;50.210;10.628;2022-12-10T05:15:05;-1.10;99.90
8537;DHT22;4306;50.210;10.628;2022-12-10T05:17:32;-1.10;99.90
8537;DHT22;4306;50.210;10.628;2022-12-10T05:19:59;-1.10;99.90
8537;DHT22;4306;50.210;10.628;2022-12-10T05:22:26;-1.10;99.90
8537;DHT22;4306;50.210;10.628;2022-12-10T05:25:12;-1.10;99.90
8537;DHT22;4306;50.210;10.628;2022-12-10T05:27:39;-1.00;99.90
8537;DHT22;4306;50.210;10.628;2022-12-10T05:30:07;-1.00;99.90
8537;DHT22;4306;50.210;10.628;2022-12-10T05:32:35;-1.10;99.90
8537;DHT22;4306;50.210;10.628;2022-12-10T05:35:02;-1.10;99.90
8537;DHT22;4306;50.210;10.628;2022-12-10T05:37:29;-1.10;99.90
8537;DHT22;4306;50.210;10.628;2022-12-10T05:39:56;-1.10;99.90
8537;DHT22;4306;50.210;10.628;2022-12-10T05:42:24;-1.20;99.90
8537;DHT22;4306;50.210;10.628;2022-12-10T05:44:51;-1.20;99.90
8537;DHT22;4306;50.210;10.628;2022-12-10T05:47:18;-1.20;99.90
8537;DHT22;4306;50.210;10.628;2022-12-10T05:49:45;-1.20;99.90
8537;DHT22;4306;50.210;10.628;2022-12-10T05:52:12;-1.10;99.90
8537;DHT22;4306;50.210;10.628;2022-12-10T05:54:39;-1.10;99.90
8537;DHT22;4306;50.210;10.628;2022-12-10T05:57:06;-1.10;99.90
8537;DHT22;4306;50.210;10.628;2022-12-10T05:59:34;-1.10;99.90
8537;DHT22;4306;50.210;10.628;2022-12-10T06:02:01;-1.10;99.90
8537;DHT22;4306;50.210;10.628;2022-12-10T06:04:28;-1.00;99.90
8537;DHT22;4306;50.210;10.628;2022-12-10T06:06:55;-1.10;99.90
8537;DHT22;4306;50.210;10.628;2022-12-10T06:09:22;-1.00;99.90
8537;DHT22;4306;50.210;10.628;2022-12-10T06:11:49;-1.10;99.90
8537;DHT22;4306;50.210;10.628;2022-12-10T06:14:15;-1.10;99.90
8537;DHT22;4306;50.210;10.628;2022-12-10T06:16:44;-1.00;99.90
8537;DHT22;4306;50.210;10.628;2022-12-10T06:19:11;-1.00;99.90
8537;DHT22;4306;50.210;10.628;2022-12-10T06:21:37;-1.00;99.90
8537;DHT22;4306;50.210;10.628;2022-12-10T06:24:05;-0.90;99.90
8537;DHT22;4306;50.210;10.628;2022-12-10T06:26:32;-1.00;99.90
8537;DHT22;4306;50.210;10.628;2022-12-10T06:28:59;-1.00;99.90
8537;DHT22;4306;50.210;10.628;2022-12-10T06:31:26;-1.00;99.90
8537;DHT22;4306;50.210;10.628;2022-12-10T06:33:55;-1.10;99.90
8537;DHT22;4306;50.210;10.628;2022-12-10T06:36:22;-1.20;99.90
8537;DHT22;4306;50.210;10.628;2022-12-10T06:38:49;-1.20;99.90
8537;DHT22;4306;50.210;10.628;2022-12-10T06:41:18;-1.20;99.90
8537;DHT22;4306;50.210;10.628;2022-12-10T06:43:46;-1.20;99.90
8537;DHT22;4306;50.210;10.628;2022-12-10T06:46:14;-1.20;99.90
8537;DHT22;4306;50.210;10.628;2022-12-10T06:48:42;-1.10;99.90
8537;DHT22;4306;50.210;10.628;2022-12-10T06:51:11;-1.10;99.90
8537;DHT22;4306;50.210;10.628;2022-12-10T06:53:39;-1.00;99.90
8537;DHT22;4306;50.210;10.628;2022-12-10T06:56:07;-1.10;99.90
8537;DHT22;4306;50.210;10.628;2022-12-10T06:58:34;-1.00;99.90
8537;DHT22;4306;50.210;10.628;2022-12-10T07:01:02;-1.00;99.90
8537;DHT22;4306;50.210;10.628;2022-12-10T07:03:29;-1.00;99.90
8537;DHT22;4306;50.210;10.628;2022-12-10T07:05:57;-1.00;99.90
8537;DHT22;4306;50.210;10.628;2022-12-10T07:08:26;-1.00;99.90
8537;DHT22;4306;50.210;10.628;2022-12-10T07:10:53;-1.00;99.90
8537;DHT22;4306;50.210;10.628;2022-12-10T07:13:20;-1.00;99.90
8537;DHT22;4306;50.210;10.628;2022-12-10T07:15:47;-0.90;99.90
8537;DHT22;4306;50.210;10.628;2022-12-10T07:18:14;-0.90;99.90
8537;DHT22;4306;50.210;10.628;2022-12-10T07:20:41;-0.90;99.90
8537;DHT22;4306;50.210;10.628;2022-12-10T07:23:08;-0.90;99.90
8537;DHT22;4306;50.210;10.628;2022-12-10T07:25:37;-0.90;99.90
8537;DHT22;4306;50.210;10.628;2022-12-10T07:28:04;-0.90;99.90
8537;DHT22;4306;50.210;10.628;2022-12-10T07:30:31;-0.80;99.90
8537;DHT22;4306;50.210;10.628;2022-12-10T07:32:59;-0.70;99.90
8537;DHT22;4306;50.210;10.628;2022-12-10T07:35:31;-0.70;99.90
8537;DHT22;4306;50.210;10.628;2022-12-10T07:38:01;-0.70;99.90
8537;DHT22;4306;50.210;10.628;2022-12-10T07:40:28;-0.70;99.90
8537;DHT22;4306;50.210;10.628;2022-12-10T07:42:57;-0.70;99.90
8537;DHT22;4306;50.210;10.628;2022-12-10T07:45:24;-0.60;99.90
8537;DHT22;4306;50.210;10.628;2022-12-10T07:47:51;-0.60;99.90
8537;DHT22;4306;50.210;10.628;2022-12-10T07:50:18;-0.60;99.90
8537;DHT22;4306;50.210;10.628;2022-12-10T07:52:46;-0.50;99.90
8537;DHT22;4306;50.210;10.628;2022-12-10T07:55:13;-0.50;99.90
8537;DHT22;4306;50.210;10.628;2022-12-10T07:57:40;-0.50;99.90
8537;DHT22;4306;50.210;10.628;2022-12-10T08:00:10;-0.50;99.90
8537;DHT22;4306;50.210;10.628;2022-12-10T08:02:37;-0.40;99.90
8537;DHT22;4306;50.210;10.628;2022-12-10T08:05:05;-0.40;99.90
8537;DHT22;4306;50.210;10.628;2022-12-10T08:07:32;-0.40;99.90
8537;DHT22;4306;50.210;10.628;2022-12-10T08:09:59;-0.30;99.90
8537;DHT22;4306;50.210;10.628;2022-12-10T08:12:27;-0.30;99.90
8537;DHT22;4306;50.210;10.628;2022-12-10T08:14:53;-0.30;99.90
8537;DHT22;4306;50.210;10.628;2022-12-10T08:17:22;-0.20;99.90
8537;DHT22;4306;50.210;10.628;2022-12-10T08:19:49;-0.20;99.90
8537;DHT22;4306;50.210;10.628;2022-12-10T08:22:16;-0.20;99.90
8537;DHT22;4306;50.210;10.628;2022-12-10T08:24:43;-0.10;99.90
8537;DHT22;4306;50.210;10.628;2022-12-10T08:27:10;-0.10;99.90
8537;DHT22;4306;50.210;10.628;2022-12-10T08:29:37;-0.10;99.90
8537;DHT22;4306;50.210;10.628;2022-12-10T08:32:04;0.00;99.90
8537;DHT22;4306;50.210;10.628;2022-12-10T08:34:33;0.00;99.90
8537;DHT22;4306;50.210;10.628;2022-12-10T08:37:00;0.00;99.90
8537;DHT22;4306;50.210;10.628;2022-12-10T08:39:27;0.00;99.90
8537;DHT22;4306;50.210;10.628;2022-12-10T08:41:55;0.10;99.90
8537;DHT22;4306;50.210;10.628;2022-12-10T08:44:22;0.10;99.90
8537;DHT22;4306;50.210;10.628;2022-12-10T08:46:49;0.10;99.90
8537;DHT22;4306;50.210;10.628;2022-12-10T08:49:16;0.20;99.90
8537;DHT22;4306;50.210;10.628;2022-12-10T08:51:44;0.20;99.90
8537;DHT22;4306;50.210;10.628;2022-12-10T08:54:12;0.20;99.90
8537;DHT22;4306;50.210;10.628;2022-12-10T08:56:39;0.30;99.90
8537;DHT22;4306;50.210;10.628;2022-12-10T08:59:06;0.40;99.90
8537;DHT22;4306;50.210;10.628;2022-12-10T09:01:33;0.40;99.90
8537;DHT22;4306;50.210;10.628;2022-12-10T09:04:00;0.40;99.90
8537;DHT22;4306;50.210;10.628;2022-12-10T09:06:27;0.50;99.90
8537;DHT22;4306;50.210;10.628;2022-12-10T09:08:56;0.50;99.90
8537;DHT22;4306;50.210;10.628;2022-12-10T09:11:25;0.60;99.90
8537;DHT22;4306;50.210;10.628;2022-12-10T09:13:53;0.60;99.90
8537;DHT22;4306;50.210;10.628;2022-12-10T09:16:21;0.70;99.90
8537;DHT22;4306;50.210;10.628;2022-12-10T09:18:53;0.70;99.90
8537;DHT22;4306;50.210;10.628;2022-12-10T09:21:20;0.80;99.90
8537;DHT22;4306;50.210;10.628;2022-12-10T09:23:49;0.80;99.90
8537;DHT22;4306;50.210;10.628;2022-12-10T09:26:18;0.90;99.90
8537;DHT22;4306;50.210;10.628;2022-12-10T09:28:46;0.90;99.90
8537;DHT22;4306;50.210;10.628;2022-12-10T09:31:14;0.90;99.90
8537;DHT22;4306;50.210;10.628;2022-12-10T09:33:42;0.90;99.90
8537;DHT22;4306;50.210;10.628;2022-12-10T09:36:11;0.90;99.90
8537;DHT22;4306;50.210;10.628;2022-12-10T09:38:41;1.00;99.90
8537;DHT22;4306;50.210;10.628;2022-12-10T09:41:27;1.10;99.90
8537;DHT22;4306;50.210;10.628;2022-12-10T09:44:03;1.10;99.90
8537;DHT22;4306;50.210;10.628;2022-12-10T09:46:39;1.00;99.90
8537;DHT22;4306;50.210;10.628;2022-12-10T09:49:15;0.70;99.90
8537;DHT22;4306;50.210;10.628;2022-12-10T09:51:45;0.70;99.90
8537;DHT22;4306;50.210;10.628;2022-12-10T09:54:17;0.80;99.90
8537;DHT22;4306;50.210;10.628;2022-12-10T09:56:46;0.80;99.90
8537;DHT22;4306;50.210;10.628;2022-12-10T09:59:19;0.80;99.90
8537;DHT22;4306;50.210;10.628;2022-12-10T10:01:47;0.90;99.90
8537;DHT22;4306;50.210;10.628;2022-12-10T10:04:16;0.80;99.90
8537;DHT22;4306;50.210;10.628;2022-12-10T10:06:43;0.90;99.90
8537;DHT22;4306;50.210;10.628;2022-12-10T10:09:12;1.00;99.90
8537;DHT22;4306;50.210;10.628;2022-12-10T10:11:41;1.10;99.90
8537;DHT22;4306;50.210;10.628;2022-12-10T10:14:14;1.00;99.90
8537;DHT22;4306;50.210;10.628;2022-12-10T10:16:47;1.10;99.90
8537;DHT22;4306;50.210;10.628;2022-12-10T10:19:17;1.20;99.90
8537;DHT22;4306;50.210;10.628;2022-12-10T10:21:46;1.20;99.90
8537;DHT22;4306;50.210;10.628;2022-12-10T10:24:16;1.30;99.90
8537;DHT22;4306;50.210;10.628;2022-12-10T10:26:44;1.20;99.90
8537;DHT22;4306;50.210;10.628;2022-12-10T10:29:15;1.10;99.90
8537;DHT22;4306;50.210;10.628;2022-12-10T10:31:43;1.10;99.90
8537;DHT22;4306;50.210;10.628;2022-12-10T10:34:15;1.20;99.90
8537;DHT22;4306;50.210;10.628;2022-12-10T10:36:42;1.10;99.90
8537;DHT22;4306;50.210;10.628;2022-12-10T10:39:11;1.20;99.90
8537;DHT22;4306;50.210;10.628;2022-12-10T10:41:45;1.40;99.90
8537;DHT22;4306;50.210;10.628;2022-12-10T10:44:19;1.50;99.90
8537;DHT22;4306;50.210;10.628;2022-12-10T10:46:48;1.40;99.90
8537;DHT22;4306;50.210;10.628;2022-12-10T10:49:23;1.50;99.90
8537;DHT22;4306;50.210;10.628;2022-12-10T10:51:50;1.60;99.90
8537;DHT22;4306;50.210;10.628;2022-12-10T10:54:33;1.40;99.90
8537;DHT22;4306;50.210;10.628;2022-12-10T10:57:06;1.60;99.90
8537;DHT22;4306;50.210;10.628;2022-12-10T10:59:39;1.60;99.90
8537;DHT22;4306;50.210;10.628;2022-12-10T11:02:17;1.60;99.90
8537;DHT22;4306;50.210;10.628;2022-12-10T11:04:48;1.60;99.90
8537;DHT22;4306;50.210;10.628;2022-12-10T11:07:21;1.50;99.90
8537;DHT22;4306;50.210;10.628;2022-12-10T11:09:49;1.40;99.90
8537;DHT22;4306;50.210;10.628;2022-12-10T11:12:38;1.40;99.90
8537;DHT22;4306;50.210;10.628;2022-12-10T11:15:31;1.30;99.90
8537;DHT22;4306;50.210;10.628;2022-12-10T11:18:00;1.40;99.90
8537;DHT22;4306;50.210;10.628;2022-12-10T11:20:29;1.40;99.90
8537;DHT22;4306;50.210;10.628;2022-12-10T11:22:58;1.40;99.90
8537;DHT22;4306;50.210;10.628;2022-12-10T11:25:38;1.40;99.90
8537;DHT22;4306;50.210;10.628;2022-12-10T11:28:17;1.40;99.90
8537;DHT22;4306;50.210;10.628;2022-12-10T11:31:03;1.40;99.90
8537;DHT22;4306;50.210;10.628;2022-12-10T11:33:37;1.50;99.90
8537;DHT22;4306;50.210;10.628;2022-12-10T11:36:23;1.40;99.90
8537;DHT22;4306;50.210;10.628;2022-12-10T11:39:05;1.40;99.90
8537;DHT22;4306;50.210;10.628;2022-12-10T11:41:38;1.30;99.90
8537;DHT22;4306;50.210;10.628;2022-12-10T11:44:15;1.20;99.90
8537;DHT22;4306;50.210;10.628;2022-12-10T11:47:06;1.30;99.90
8537;DHT22;4306;50.210;10.628;2022-12-10T11:49:39;1.30;99.90
8537;DHT22;4306;50.210;10.628;2022-12-10T11:52:16;1.20;99.90
8537;DHT22;4306;50.210;10.628;2022-12-10T11:54:58;1.20;99.90
8537;DHT22;4306;50.210;10.628;2022-12-10T11:57:34;1.20;99.90
8537;DHT22;4306;50.210;10.628;2022-12-10T12:00:16;1.30;99.90
8537;DHT22;4306;50.210;10.628;2022-12-10T12:03:00;1.30;99.90
8537;DHT22;4306;50.210;10.628;2022-12-10T12:05:47;1.30;99.90
8537;DHT22;4306;50.210;10.628;2022-12-10T12:08:22;1.30;99.90
8537;DHT22;4306;50.210;10.628;2022-12-10T12:11:06;1.30;99.90
8537;DHT22;4306;50.210;10.628;2022-12-10T12:13:39;1.50;99.90
8537;DHT22;4306;50.210;10.628;2022-12-10T12:16:13;1.40;99.90
8537;DHT22;4306;50.210;10.628;2022-12-10T12:18:48;1.50;99.90
8537;DHT22;4306;50.210;10.628;2022-12-10T12:21:21;1.50;99.90
8537;DHT22;4306;50.210;10.628;2022-12-10T12:23:55;1.60;99.90
8537;DHT22;4306;50.210;10.628;2022-12-10T12:26:27;1.50;99.90
8537;DHT22;4306;50.210;10.628;2022-12-10T12:29:01;1.50;99.90
8537;DHT22;4306;50.210;10.628;2022-12-10T12:31:35;1.60;99.90
8537;DHT22;4306;50.210;10.628;2022-12-10T12:34:06;1.60;99.90
8537;DHT22;4306;50.210;10.628;2022-12-10T12:36:39;1.60;99.90
8537;DHT22;4306;50.210;10.628;2022-12-10T12:39:15;1.70;99.90
8537;DHT22;4306;50.210;10.628;2022-12-10T12:41:49;1.60;99.90
8537;DHT22;4306;50.210;10.628;2022-12-10T12:44:24;1.50;99.90
8537;DHT22;4306;50.210;10.628;2022-12-10T12:46:57;1.60;99.90
8537;DHT22;4306;50.210;10.628;2022-12-10T12:49:29;1.70;99.90
8537;DHT22;4306;50.210;10.628;2022-12-10T12:52:02;1.70;99.90
8537;DHT22;4306;50.210;10.628;2022-12-10T12:54:32;1.60;99.90
8537;DHT22;4306;50.210;10.628;2022-12-10T12:57:05;1.70;99.90
8537;DHT22;4306;50.210;10.628;2022-12-10T12:59:52;1.80;99.90
8537;DHT22;4306;50.210;10.628;2022-12-10T13:05:27;1.70;99.90
8537;DHT22;4306;50.210;10.628;2022-12-10T13:08:23;1.70;99.90
8537;DHT22;4306;50.210;10.628;2022-12-10T13:10:53;1.70;99.90
8537;DHT22;4306;50.210;10.628;2022-12-10T13:13:27;1.60;99.90
8537;DHT22;4306;50.210;10.628;2022-12-10T13:15:55;1.70;99.90
8537;DHT22;4306;50.210;10.628;2022-12-10T13:18:39;1.70;99.90
8537;DHT22;4306;50.210;10.628;2022-12-10T13:21:28;1.70;99.90
8537;DHT22;4306;50.210;10.628;2022-12-10T13:24:10;1.70;99.90
8537;DHT22;4306;50.210;10.628;2022-12-10T13:26:42;1.70;99.90
8537;DHT22;4306;50.210;10.628;2022-12-10T13:29:44;1.70;99.90
8537;DHT22;4306;50.210;10.628;2022-12-10T13:32:15;1.70;99.90
8537;DHT22;4306;50.210;10.628;2022-12-10T13:34:43;1.80;99.90
8537;DHT22;4306;50.210;10.628;2022-12-10T13:37:25;1.80;99.90
8537;DHT22;4306;50.210;10.628;2022-12-10T13:40:03;1.70;99.90
8537;DHT22;4306;50.210;10.628;2022-12-10T13:42:40;1.60;99.90
8537;DHT22;4306;50.210;10.628;2022-12-10T13:45:30;1.60;99.90
8537;DHT22;4306;50.210;10.628;2022-12-10T13:48:31;1.70;99.90
8537;DHT22;4306;50.210;10.628;2022-12-10T13:51:17;1.60;99.90
8537;DHT22;4306;50.210;10.628;2022-12-10T13:54:00;1.50;99.90
8537;DHT22;4306;50.210;10.628;2022-12-10T13:56:36;1.60;99.90
8537;DHT22;4306;50.210;10.628;2022-12-10T13:59:23;1.60;99.90
8537;DHT22;4306;50.210;10.628;2022-12-10T14:02:20;1.50;99.90
8537;DHT22;4306;50.210;10.628;2022-12-10T14:05:07;1.60;99.90
8537;DHT22;4306;50.210;10.628;2022-12-10T14:07:38;1.50;99.90
8537;DHT22;4306;50.210;10.628;2022-12-10T14:10:13;1.50;99.90
8537;DHT22;4306;50.210;10.628;2022-12-10T14:12:42;1.60;99.90
8537;DHT22;4306;50.210;10.628;2022-12-10T14:15:16;1.50;99.90
8537;DHT22;4306;50.210;10.628;2022-12-10T14:17:45;1.40;99.90
8537;DHT22;4306;50.210;10.628;2022-12-10T14:20:16;1.40;99.90
8537;DHT22;4306;50.210;10.628;2022-12-10T14:22:47;1.50;99.90
8537;DHT22;4306;50.210;10.628;2022-12-10T14:25:18;1.50;99.90
8537;DHT22;4306;50.210;10.628;2022-12-10T14:27:47;1.40;99.90
8537;DHT22;4306;50.210;10.628;2022-12-10T14:30:16;1.50;99.90
8537;DHT22;4306;50.210;10.628;2022-12-10T14:32:44;1.40;99.90
8537;DHT22;4306;50.210;10.628;2022-12-10T14:35:14;1.30;99.90
8537;DHT22;4306;50.210;10.628;2022-12-10T14:37:43;1.40;99.90
8537;DHT22;4306;50.210;10.628;2022-12-10T14:40:21;1.30;99.90
8537;DHT22;4306;50.210;10.628;2022-12-10T14:42:50;1.30;99.90
8537;DHT22;4306;50.210;10.628;2022-12-10T14:45:17;1.30;99.90
8537;DHT22;4306;50.210;10.628;2022-12-10T14:47:45;1.10;99.90
8537;DHT22;4306;50.210;10.628;2022-12-10T14:50:15;1.20;99.90
8537;DHT22;4306;50.210;10.628;2022-12-10T14:52:45;1.10;99.90
8537;DHT22;4306;50.210;10.628;2022-12-10T14:55:17;1.20;99.90
8537;DHT22;4306;50.210;10.628;2022-12-10T14:57:50;1.20;99.90
8537;DHT22;4306;50.210;10.628;2022-12-10T15:00:20;1.20;99.90
8537;DHT22;4306;50.210;10.628;2022-12-10T15:02:52;1.20;99.90
8537;DHT22;4306;50.210;10.628;2022-12-10T15:05:23;1.30;99.90
8537;DHT22;4306;50.210;10.628;2022-12-10T15:07:54;1.20;99.90
8537;DHT22;4306;50.210;10.628;2022-12-10T15:10:24;1.20;99.90
8537;DHT22;4306;50.210;10.628;2022-12-10T15:12:54;1.20;99.90
8537;DHT22;4306;50.210;10.628;2022-12-10T15:15:26;1.10;99.90
8537;DHT22;4306;50.210;10.628;2022-12-10T15:17:59;1.20;99.90
8537;DHT22;4306;50.210;10.628;2022-12-10T15:20:28;1.20;99.90
8537;DHT22;4306;50.210;10.628;2022-12-10T15:23:07;1.10;99.90
8537;DHT22;4306;50.210;10.628;2022-12-10T15:25:42;1.10;99.90
8537;DHT22;4306;50.210;10.628;2022-12-10T15:28:24;1.00;99.90
8537;DHT22;4306;50.210;10.628;2022-12-10T15:30:54;1.00;99.90
8537;DHT22;4306;50.210;10.628;2022-12-10T15:33:28;1.20;99.90
8537;DHT22;4306;50.210;10.628;2022-12-10T15:35:59;1.00;99.90
8537;DHT22;4306;50.210;10.628;2022-12-10T15:38:26;0.90;99.90
8537;DHT22;4306;50.210;10.628;2022-12-10T15:41:20;0.90;99.90
8537;DHT22;4306;50.210;10.628;2022-12-10T15:43:58;0.80;99.90
8537;DHT22;4306;50.210;10.628;2022-12-10T15:46:26;0.90;99.90
8537;DHT22;4306;50.210;10.628;2022-12-10T15:48:53;1.00;99.90
8537;DHT22;4306;50.210;10.628;2022-12-10T15:51:20;1.00;99.90
8537;DHT22;4306;50.210;10.628;2022-12-10T15:53:47;1.00;99.90
8537;DHT22;4306;50.210;10.628;2022-12-10T15:56:14;0.90;99.90
8537;DHT22;4306;50.210;10.628;2022-12-10T15:58:41;0.90;99.90
8537;DHT22;4306;50.210;10.628;2022-12-10T16:01:12;0.80;99.90
8537;DHT22;4306;50.210;10.628;2022-12-10T16:03:39;0.80;99.90
8537;DHT22;4306;50.210;10.628;2022-12-10T16:06:07;0.80;99.90
8537;DHT22;4306;50.210;10.628;2022-12-10T16:08:34;0.80;99.90
8537;DHT22;4306;50.210;10.628;2022-12-10T16:11:15;0.80;99.90
8537;DHT22;4306;50.210;10.628;2022-12-10T16:13:48;0.90;99.90
8537;DHT22;4306;50.210;10.628;2022-12-10T16:16:17;0.70;99.90
8537;DHT22;4306;50.210;10.628;2022-12-10T16:18:44;0.70;99.90
8537;DHT22;4306;50.210;10.628;2022-12-10T16:21:11;0.60;99.90